Time,TemperatureF,DewpointF,PressureIn,WindDirection,WindDirectionDegrees,WindSpeedMPH,WindSpeedGustMPH,Humidity,HourlyPrecipIn,Conditions,Clouds,dailyrainin,SoftwareType,DateUTC
2013-04-28 00:00:00,42.3,41.5,30.33,SSE,163,0.0,1.0,97,0.00,,,0.00,VWS V14.01,2013-04-28 04:00:00,
2013-04-28 00:01:00,42.5,41.7,30.32,SSE,163,0.0,1.0,97,0.00,,,0.00,VWS V14.01,2013-04-28 04:01:00,
2013-04-28 00:03:00,42.3,41.5,30.33,SSE,163,0.0,0.0,97,0.00,,,0.00,VWS V14.01,2013-04-28 04:03:00,
2013-04-28 00:04:00,42.3,41.5,30.32,SSE,163,0.0,0.0,97,0.00,,,0.00,VWS V14.01,2013-04-28 04:04:00,
2013-04-28 00:06:00,42.2,41.4,30.32,SSE,163,0.0,0.0,97,0.00,,,0.00,VWS V14.01,2013-04-28 04:06:00,
2013-04-28 00:10:00,42.1,41.3,30.32,SSE,163,0.0,0.0,97,0.00,,,0.00,VWS V14.01,2013-04-28 04:10:00,
2013-04-28 00:11:00,42.1,41.3,30.32,SSE,163,0.0,0.0,97,0.00,,,0.00,VWS V14.01,2013-04-28 04:11:00,
2013-04-28 00:16:00,41.9,41.1,30.32,SSE,163,0.0,0.0,97,0.00,,,0.00,VWS V14.01,2013-04-28 04:16:00,
2013-04-28 00:20:00,41.8,41.0,30.32,SSE,163,0.0,0.0,97,0.00,,,0.00,VWS V14.01,2013-04-28 04:20:00,
2013-04-28 00:21:00,41.8,41.0,30.32,SSE,163,0.0,0.0,97,0.00,,,0.00,VWS V14.01,2013-04-28 04:21:00,
2013-04-28 00:26:00,41.8,41.0,30.32,SSE,163,0.0,0.0,97,0.00,,,0.00,VWS V14.01,2013-04-28 04:26:00,
2013-04-28 00:30:00,41.6,41.1,30.32,SSE,163,0.0,0.0,98,0.00,,,0.00,VWS V14.01,2013-04-28 04:30:00,
2013-04-28 00:31:00,41.6,41.1,30.32,SSE,163,0.0,0.0,98,0.00,,,0.00,VWS V14.01,2013-04-28 04:31:00,
2013-04-28 00:36:00,41.5,41.0,30.32,SSE,163,0.0,0.0,98,0.00,,,0.00,VWS V14.01,2013-04-28 04:36:00,
2013-04-28 00:40:00,41.3,40.8,30.33,SSE,163,0.0,0.0,98,0.00,,,0.00,VWS V14.01,2013-04-28 04:40:00,
2013-04-28 00:41:00,41.3,40.8,30.33,SSE,163,0.0,0.0,98,0.00,,,0.00,VWS V14.01,2013-04-28 04:41:00,
2013-04-28 00:46:00,41.3,40.8,30.32,SSE,163,0.0,0.0,98,0.00,,,0.00,VWS V14.01,2013-04-28 04:46:00,
2013-04-28 00:50:00,41.2,40.7,30.32,SSE,163,0.0,0.0,98,0.00,,,0.00,VWS V14.01,2013-04-28 04:50:00,
2013-04-28 00:51:00,41.2,40.7,30.32,SSE,163,0.0,0.0,98,0.00,,,0.00,VWS V14.01,2013-04-28 04:51:00,
2013-04-28 00:57:00,41.2,40.7,30.32,SSE,163,0.0,0.0,98,0.00,,,0.00,VWS V14.01,2013-04-28 04:57:00,
2013-04-28 01:00:00,41.2,40.7,30.32,SSE,163,0.0,0.0,98,0.00,,,0.00,VWS V14.01,2013-04-28 05:00:00,
2013-04-28 01:02:00,41.2,40.7,30.32,SSE,163,0.0,0.0,98,0.00,,,0.00,VWS V14.01,2013-04-28 05:02:00,
2013-04-28 01:07:00,41.2,40.7,30.31,SSE,163,0.0,0.0,98,0.00,,,0.00,VWS V14.01,2013-04-28 05:07:00,
2013-04-28 01:10:00,41.2,40.7,30.31,SSE,163,0.0,0.0,98,0.00,,,0.00,VWS V14.01,2013-04-28 05:10:00,
2013-04-28 01:12:00,41.2,40.7,30.31,SSE,163,0.0,0.0,98,0.00,,,0.00,VWS V14.01,2013-04-28 05:12:00,
2013-04-28 01:17:00,41.2,40.7,30.31,SSE,163,0.0,0.0,98,0.00,,,0.00,VWS V14.01,2013-04-28 05:17:00,
2013-04-28 01:20:00,41.1,40.6,30.31,North,0,0.0,0.0,98,0.00,,,0.00,VWS V14.01,2013-04-28 05:20:00,
2013-04-28 01:30:00,40.9,40.4,30.31,North,0,0.0,0.0,98,0.00,,,0.00,VWS V14.01,2013-04-28 05:30:00,
2013-04-28 01:40:00,40.8,40.3,30.31,North,0,0.0,0.0,98,0.00,,,0.00,VWS V14.01,2013-04-28 05:40:00,
2013-04-28 01:50:00,40.5,40.0,30.30,North,0,0.0,0.0,98,0.00,,,0.00,VWS V14.01,2013-04-28 05:50:00,
2013-04-28 02:00:00,40.2,39.7,30.30,North,0,0.0,0.0,98,0.00,,,0.00,VWS V14.01,2013-04-28 06:00:00,
2013-04-28 02:10:00,39.8,39.3,30.30,North,0,0.0,0.0,98,0.00,,,0.00,VWS V14.01,2013-04-28 06:10:00,
2013-04-28 02:20:00,39.3,38.8,30.30,North,0,0.0,0.0,98,0.00,,,0.00,VWS V14.01,2013-04-28 06:20:00,
2013-04-28 02:30:00,38.9,38.4,30.29,North,0,0.0,0.0,98,0.00,,,0.00,VWS V14.01,2013-04-28 06:30:00,
2013-04-28 02:40:00,38.6,38.1,30.29,North,0,0.0,0.0,98,0.00,,,0.00,VWS V14.01,2013-04-28 06:40:00,
2013-04-28 02:50:00,38.5,38.0,30.29,North,0,0.0,0.0,98,0.00,,,0.00,VWS V14.01,2013-04-28 06:50:00,
2013-04-28 03:00:00,38.3,37.8,30.29,North,0,0.0,0.0,98,0.00,,,0.00,VWS V14.01,2013-04-28 07:00:00,
2013-04-28 03:10:00,38.5,38.0,30.29,North,0,0.0,0.0,98,0.00,,,0.00,VWS V14.01,2013-04-28 07:10:00,
2013-04-28 03:20:00,38.9,38.4,30.29,North,0,0.0,0.0,98,0.00,,,0.00,VWS V14.01,2013-04-28 07:20:00,
2013-04-28 03:30:00,39.5,39.0,30.28,North,0,0.0,0.0,98,0.00,,,0.00,VWS V14.01,2013-04-28 07:30:00,
2013-04-28 03:40:00,39.6,39.1,30.28,North,0,0.0,0.0,98,0.00,,,0.00,VWS V14.01,2013-04-28 07:40:00,
2013-04-28 03:50:00,39.9,39.4,30.28,North,0,0.0,0.0,98,0.00,,,0.00,VWS V14.01,2013-04-28 07:50:00,
2013-04-28 04:00:00,40.1,39.6,30.28,North,0,0.0,0.0,98,0.00,,,0.00,VWS V14.01,2013-04-28 08:00:00,
2013-04-28 04:10:00,40.2,39.9,30.28,North,0,0.0,0.0,99,0.00,,,0.00,VWS V14.01,2013-04-28 08:10:00,
2013-04-28 04:20:00,40.2,39.7,30.28,North,0,0.0,0.0,98,0.00,,,0.00,VWS V14.01,2013-04-28 08:20:00,
2013-04-28 04:30:00,40.1,39.6,30.28,North,0,0.0,0.0,98,0.00,,,0.00,VWS V14.01,2013-04-28 08:30:00,
2013-04-28 04:40:00,40.1,39.8,30.28,North,0,0.0,0.0,99,0.00,,,0.00,VWS V14.01,2013-04-28 08:40:00,
2013-04-28 04:50:00,40.1,39.8,30.28,North,0,0.0,0.0,99,0.00,,,0.00,VWS V14.01,2013-04-28 08:50:00,
2013-04-28 05:00:00,39.9,39.4,30.28,North,0,0.0,0.0,98,0.00,,,0.00,VWS V14.01,2013-04-28 09:00:00,
2013-04-28 05:10:00,39.6,39.1,30.28,North,0,0.0,0.0,98,0.00,,,0.00,VWS V14.01,2013-04-28 09:10:00,
2013-04-28 05:20:00,39.5,39.0,30.28,North,0,0.0,0.0,98,0.00,,,0.00,VWS V14.01,2013-04-28 09:20:00,
2013-04-28 05:30:00,39.1,38.6,30.28,North,0,0.0,0.0,98,0.00,,,0.00,VWS V14.01,2013-04-28 09:30:00,
2013-04-28 05:40:00,38.8,38.3,30.28,North,0,0.0,0.0,98,0.00,,,0.00,VWS V14.01,2013-04-28 09:40:00,
2013-04-28 05:50:00,38.6,38.3,30.28,North,0,0.0,0.0,99,0.00,,,0.00,VWS V14.01,2013-04-28 09:50:00,
2013-04-28 06:00:00,38.3,38.0,30.29,North,0,0.0,0.0,99,0.00,,,0.00,VWS V14.01,2013-04-28 10:00:00,
2013-04-28 06:10:00,38.3,38.0,30.29,North,0,0.0,0.0,99,0.00,,,0.00,VWS V14.01,2013-04-28 10:10:00,
2013-04-28 06:20:00,38.3,38.0,30.29,North,0,0.0,0.0,99,0.00,,,0.00,VWS V14.01,2013-04-28 10:20:00,
2013-04-28 06:30:00,38.6,38.3,30.30,North,0,0.0,0.0,99,0.00,,,0.00,VWS V14.01,2013-04-28 10:30:00,
2013-04-28 06:40:00,39.1,38.8,30.29,North,0,0.0,0.0,99,0.00,,,0.00,VWS V14.01,2013-04-28 10:40:00,
2013-04-28 06:50:00,39.5,39.2,30.30,North,0,0.0,0.0,99,0.00,,,0.00,VWS V14.01,2013-04-28 10:50:00,
2013-04-28 07:00:00,40.1,39.8,30.30,North,0,0.0,0.0,99,0.00,,,0.00,VWS V14.01,2013-04-28 11:00:00,
2013-04-28 07:10:00,40.8,40.8,30.31,North,0,0.0,0.0,100,0.00,,,0.00,VWS V14.01,2013-04-28 11:10:00,
2013-04-28 07:20:00,41.5,41.5,30.31,North,0,0.0,0.0,100,0.00,,,0.00,VWS V14.01,2013-04-28 11:20:00,
2013-04-28 07:30:00,42.2,42.2,30.31,North,0,0.0,0.0,100,0.00,,,0.00,VWS V14.01,2013-04-28 11:30:00,
2013-04-28 07:40:00,43.1,43.1,30.32,North,0,0.0,0.0,100,0.00,,,0.00,VWS V14.01,2013-04-28 11:40:00,
2013-04-28 07:50:00,43.8,43.8,30.32,North,0,0.0,0.0,100,0.00,,,0.00,VWS V14.01,2013-04-28 11:50:00,
2013-04-28 08:00:00,46.0,46.0,30.32,North,0,0.0,0.0,100,0.00,,,0.00,VWS V14.01,2013-04-28 12:00:00,
2013-04-28 08:10:00,46.4,46.4,30.32,North,0,0.0,0.0,100,0.00,,,0.00,VWS V14.01,2013-04-28 12:10:00,
2013-04-28 08:20:00,46.8,46.8,30.32,North,0,0.0,0.0,100,0.00,,,0.00,VWS V14.01,2013-04-28 12:20:00,
2013-04-28 08:30:00,47.0,47.0,30.32,North,0,0.0,0.0,100,0.00,,,0.00,VWS V14.01,2013-04-28 12:30:00,
2013-04-28 08:40:00,47.9,47.9,30.33,North,0,0.0,0.0,100,0.00,,,0.00,VWS V14.01,2013-04-28 12:40:00,
2013-04-28 08:50:00,48.8,48.8,30.33,North,0,0.0,0.0,100,0.00,,,0.00,VWS V14.01,2013-04-28 12:50:00,
2013-04-28 08:59:00,49.1,49.1,30.33,SSE,163,0.0,0.0,100,0.00,,,0.00,VWS V14.01,2013-04-28 12:59:00,
2013-04-28 09:00:00,49.5,49.5,30.33,SSE,163,0.0,0.0,100,0.00,,,0.00,VWS V14.01,2013-04-28 13:00:00,
2013-04-28 09:04:00,49.9,49.9,30.33,SSE,163,0.0,1.0,100,0.00,,,0.00,VWS V14.01,2013-04-28 13:04:00,
2013-04-28 09:10:00,49.6,49.1,30.33,SSE,163,0.0,1.0,98,0.00,,,0.00,VWS V14.01,2013-04-28 13:10:00,
2013-04-28 09:15:00,50.1,49.6,30.33,SSE,163,2.0,2.0,98,0.00,,,0.00,VWS V14.01,2013-04-28 13:15:00,
2013-04-28 09:20:00,50.1,49.3,30.33,SSE,163,0.0,2.0,97,0.00,,,0.00,VWS V14.01,2013-04-28 13:20:00,
2013-04-28 09:25:00,49.9,48.8,30.33,SSE,163,0.0,0.0,96,0.00,,,0.00,VWS V14.01,2013-04-28 13:25:00,
2013-04-28 09:30:00,50.8,49.7,30.33,SSE,163,0.0,1.0,96,0.00,,,0.00,VWS V14.01,2013-04-28 13:30:00,
2013-04-28 09:35:00,51.1,49.2,30.33,SSE,163,0.0,4.0,93,0.00,,,0.00,VWS V14.01,2013-04-28 13:35:00,
2013-04-28 09:40:00,51.4,49.2,30.34,SSE,163,0.0,4.0,92,0.00,,,0.00,VWS V14.01,2013-04-28 13:40:00,
2013-04-28 09:45:00,51.4,48.9,30.33,SSE,163,0.0,1.0,91,0.00,,,0.00,VWS V14.01,2013-04-28 13:45:00,
2013-04-28 09:50:00,51.7,49.2,30.33,SSE,163,0.0,1.0,91,0.00,,,0.00,VWS V14.01,2013-04-28 13:50:00,
2013-04-28 09:56:00,51.4,48.3,30.33,SSE,163,0.0,1.0,89,0.00,,,0.00,VWS V14.01,2013-04-28 13:56:00,
2013-04-28 10:00:00,51.7,48.0,30.33,SSE,163,0.0,1.0,87,0.00,,,0.00,VWS V14.01,2013-04-28 14:00:00,
2013-04-28 10:01:00,52.0,49.2,30.33,SSE,163,0.0,1.0,90,0.00,,,0.00,VWS V14.01,2013-04-28 14:01:00,
2013-04-28 10:06:00,52.0,48.6,30.33,SSE,163,0.0,1.0,88,0.00,,,0.00,VWS V14.01,2013-04-28 14:06:00,
2013-04-28 10:10:00,52.2,48.2,30.33,SSE,163,0.0,1.0,86,0.00,,,0.00,VWS V14.01,2013-04-28 14:10:00,
2013-04-28 10:11:00,52.2,48.2,30.33,SSE,163,0.0,1.0,86,0.00,,,0.00,VWS V14.01,2013-04-28 14:11:00,
2013-04-28 10:16:00,52.2,48.2,30.33,SSE,163,0.0,2.0,86,0.00,,,0.00,VWS V14.01,2013-04-28 14:16:00,
2013-04-28 10:20:00,52.5,48.4,30.33,SSE,163,0.0,2.0,86,0.00,,,0.00,VWS V14.01,2013-04-28 14:20:00,
2013-04-28 10:21:00,52.5,48.8,30.33,SSE,163,0.0,2.0,87,0.00,,,0.00,VWS V14.01,2013-04-28 14:21:00,
2013-04-28 10:26:00,52.3,48.2,30.33,SSE,163,0.0,0.0,86,0.00,,,0.00,VWS V14.01,2013-04-28 14:26:00,
2013-04-28 10:30:00,52.6,47.9,30.33,SSE,163,0.0,2.0,84,0.00,,,0.00,VWS V14.01,2013-04-28 14:30:00,
2013-04-28 10:31:00,52.5,47.8,30.33,SSE,163,0.0,2.0,84,0.00,,,0.00,VWS V14.01,2013-04-28 14:31:00,
2013-04-28 10:36:00,52.8,47.5,30.33,SSE,163,1.0,2.0,82,0.00,,,0.00,VWS V14.01,2013-04-28 14:36:00,
2013-04-28 10:40:00,53.3,47.6,30.33,SSE,163,0.0,2.0,81,0.00,,,0.00,VWS V14.01,2013-04-28 14:40:00,
2013-04-28 10:50:00,53.8,48.4,30.32,SSE,163,0.0,2.0,82,0.00,,,0.00,VWS V14.01,2013-04-28 14:50:00,
2013-04-28 11:00:00,54.2,47.5,30.32,SSE,163,0.0,1.0,78,0.00,,,0.00,VWS V14.01,2013-04-28 15:00:00,
2013-04-28 11:03:00,54.2,47.5,30.32,SSE,163,0.0,0.0,78,0.00,,,0.00,VWS V14.01,2013-04-28 15:03:00,
2013-04-28 11:08:00,54.4,48.0,30.32,SSE,163,0.0,1.0,79,0.00,,,0.00,VWS V14.01,2013-04-28 15:08:00,
2013-04-28 11:10:00,54.5,48.1,30.33,SSE,163,0.0,1.0,79,0.00,,,0.00,VWS V14.01,2013-04-28 15:10:00,
2013-04-28 11:13:00,54.5,47.8,30.33,SSE,163,0.0,0.0,78,0.00,,,0.00,VWS V14.01,2013-04-28 15:13:00,
2013-04-28 11:18:00,54.5,48.5,30.33,SSE,163,1.0,2.0,80,0.00,,,0.00,VWS V14.01,2013-04-28 15:18:00,
2013-04-28 11:20:00,55.3,49.2,30.32,SSE,163,0.0,2.0,80,0.00,,,0.00,VWS V14.01,2013-04-28 15:20:00,
2013-04-28 11:23:00,55.3,48.9,30.32,SSE,163,0.0,0.0,79,0.00,,,0.00,VWS V14.01,2013-04-28 15:23:00,
2013-04-28 11:28:00,55.4,47.6,30.33,SSE,163,0.0,1.0,75,0.00,,,0.00,VWS V14.01,2013-04-28 15:28:00,
2013-04-28 11:30:00,55.4,47.6,30.32,SSE,163,0.0,1.0,75,0.00,,,0.00,VWS V14.01,2013-04-28 15:30:00,
2013-04-28 11:33:00,55.4,48.0,30.32,SSE,163,0.0,0.0,76,0.00,,,0.00,VWS V14.01,2013-04-28 15:33:00,
2013-04-28 11:38:00,55.4,47.6,30.32,SSE,163,0.0,1.0,75,0.00,,,0.00,VWS V14.01,2013-04-28 15:38:00,
2013-04-28 11:40:00,55.3,47.5,30.32,SSE,163,1.0,2.0,75,0.00,,,0.00,VWS V14.01,2013-04-28 15:40:00,
2013-04-28 11:43:00,55.4,47.3,30.32,SSE,163,0.0,4.0,74,0.00,,,0.00,VWS V14.01,2013-04-28 15:43:00,
2013-04-28 11:48:00,55.6,47.8,30.32,SSE,163,0.0,4.0,75,0.00,,,0.00,VWS V14.01,2013-04-28 15:48:00,
2013-04-28 11:50:00,56.0,48.2,30.32,SSE,163,1.0,4.0,75,0.00,,,0.00,VWS V14.01,2013-04-28 15:50:00,
2013-04-28 11:53:00,56.2,48.4,30.32,SSE,163,0.0,1.0,75,0.00,,,0.00,VWS V14.01,2013-04-28 15:53:00,
2013-04-28 11:58:00,56.3,48.5,30.32,SSE,163,0.0,1.0,75,0.00,,,0.00,VWS V14.01,2013-04-28 15:58:00,
2013-04-28 12:00:00,56.3,48.8,30.32,SSE,163,0.0,2.0,76,0.00,,,0.00,VWS V14.01,2013-04-28 16:00:00,
2013-04-28 12:03:00,56.3,48.5,30.32,SSE,163,0.0,1.0,75,0.00,,,0.00,VWS V14.01,2013-04-28 16:03:00,
2013-04-28 12:09:00,56.2,48.8,30.32,SSE,163,0.0,4.0,76,0.00,,,0.00,VWS V14.01,2013-04-28 16:09:00,
2013-04-28 12:10:00,56.5,49.4,30.32,SSE,163,1.0,4.0,77,0.00,,,0.00,VWS V14.01,2013-04-28 16:10:00,
2013-04-28 12:14:00,56.5,49.0,30.32,SSE,163,0.0,1.0,76,0.00,,,0.00,VWS V14.01,2013-04-28 16:14:00,
2013-04-28 12:19:00,56.2,48.8,30.32,SSE,163,0.0,1.0,76,0.00,,,0.00,VWS V14.01,2013-04-28 16:19:00,
2013-04-28 12:20:00,56.3,49.5,30.32,SSE,163,0.0,4.0,78,0.00,,,0.00,VWS V14.01,2013-04-28 16:20:00,
2013-04-28 12:24:00,56.3,49.5,30.32,SSE,163,0.0,1.0,78,0.00,,,0.00,VWS V14.01,2013-04-28 16:24:00,
2013-04-28 12:29:00,56.7,49.9,30.32,SSE,163,1.0,1.0,78,0.00,,,0.00,VWS V14.01,2013-04-28 16:29:00,
2013-04-28 12:30:00,56.6,49.5,30.31,SSE,163,1.0,2.0,77,0.00,,,0.00,VWS V14.01,2013-04-28 16:30:00,
2013-04-28 12:34:00,56.5,49.0,30.31,SSE,163,0.0,1.0,76,0.00,,,0.00,VWS V14.01,2013-04-28 16:34:00,
2013-04-28 12:39:00,55.4,49.0,30.31,SSE,163,0.0,1.0,79,0.00,,,0.00,VWS V14.01,2013-04-28 16:39:00,
2013-04-28 12:40:00,55.0,49.0,30.31,SSE,163,0.0,2.0,80,0.00,,,0.00,VWS V14.01,2013-04-28 16:40:00,
2013-04-28 12:44:00,55.4,49.3,30.31,SSE,163,0.0,1.0,80,0.00,,,0.00,VWS V14.01,2013-04-28 16:44:00,
2013-04-28 12:49:00,56.2,50.1,30.31,SSE,163,0.0,2.0,80,0.00,,,0.00,VWS V14.01,2013-04-28 16:49:00,
2013-04-28 12:50:00,56.9,49.8,30.31,SSE,163,2.0,2.0,77,0.00,,,0.00,VWS V14.01,2013-04-28 16:50:00,
2013-04-28 12:54:00,56.7,49.2,30.31,SSE,163,0.0,2.0,76,0.00,,,0.00,VWS V14.01,2013-04-28 16:54:00,
2013-04-28 12:59:00,56.6,49.8,30.31,SSE,163,1.0,4.0,78,0.00,,,0.00,VWS V14.01,2013-04-28 16:59:00,
2013-04-28 13:05:00,57.2,50.1,30.31,SSE,163,0.0,0.0,77,0.00,,,0.00,VWS V14.01,2013-04-28 17:05:00,
2013-04-28 13:10:00,57.2,49.7,30.31,SSE,163,0.0,2.0,76,0.00,,,0.00,VWS V14.01,2013-04-28 17:10:00,
2013-04-28 13:15:00,55.9,48.8,30.31,South,169,2.0,4.0,77,0.00,,,0.00,VWS V14.01,2013-04-28 17:15:00,
2013-04-28 13:20:00,55.1,48.4,30.31,SSW,209,3.0,4.0,78,0.00,,,0.00,VWS V14.01,2013-04-28 17:20:00,
2013-04-28 13:25:00,55.4,49.3,30.31,SSW,211,3.0,3.0,80,0.00,,,0.00,VWS V14.01,2013-04-28 17:25:00,
2013-04-28 13:30:00,55.1,49.0,30.31,SW,223,1.0,5.0,80,0.00,,,0.00,VWS V14.01,2013-04-28 17:30:00,
2013-04-28 13:35:00,55.6,48.5,30.30,SW,223,2.0,3.0,77,0.00,,,0.00,VWS V14.01,2013-04-28 17:35:00,
2013-04-28 13:40:00,55.9,48.5,30.30,SW,226,3.0,4.0,76,0.00,,,0.00,VWS V14.01,2013-04-28 17:40:00,
2013-04-28 13:41:00,55.7,49.0,30.30,SW,223,2.0,3.0,78,0.00,,,0.00,VWS V14.01,2013-04-28 17:41:00,
2013-04-28 13:46:00,55.3,48.2,30.30,SW,227,0.0,5.0,77,0.00,,,0.00,VWS V14.01,2013-04-28 17:46:00,
2013-04-28 13:50:00,56.9,49.8,30.30,SW,227,0.0,5.0,77,0.00,,,0.00,VWS V14.01,2013-04-28 17:50:00,
2013-04-28 13:51:00,56.6,49.5,30.30,SW,227,0.0,5.0,77,0.00,,,0.00,VWS V14.01,2013-04-28 17:51:00,
2013-04-28 13:56:00,57.5,48.6,30.30,SW,231,3.0,4.0,72,0.00,,,0.00,VWS V14.01,2013-04-28 17:56:00,
2013-04-28 14:00:00,56.5,50.1,30.30,SW,232,1.0,4.0,79,0.00,,,0.00,VWS V14.01,2013-04-28 18:00:00,
2013-04-28 14:01:00,55.9,48.8,30.30,SW,232,0.0,4.0,77,0.00,,,0.00,VWS V14.01,2013-04-28 18:01:00,
2013-04-28 14:06:00,56.6,48.8,30.30,SW,235,3.0,5.0,75,0.00,,,0.00,VWS V14.01,2013-04-28 18:06:00,
2013-04-28 14:10:00,55.9,48.1,30.30,SW,235,0.0,5.0,75,0.00,,,0.00,VWS V14.01,2013-04-28 18:10:00,
2013-04-28 14:11:00,55.9,48.5,30.30,SW,235,3.0,5.0,76,0.00,,,0.00,VWS V14.01,2013-04-28 18:11:00,
2013-04-28 14:16:00,56.0,48.5,30.30,SW,236,3.0,4.0,76,0.00,,,0.00,VWS V14.01,2013-04-28 18:16:00,
2013-04-28 14:20:00,55.4,48.3,30.30,WSW,238,2.0,4.0,77,0.00,,,0.00,VWS V14.01,2013-04-28 18:20:00,
2013-04-28 14:21:00,55.4,48.0,30.30,WSW,238,1.0,4.0,76,0.00,,,0.00,VWS V14.01,2013-04-28 18:21:00,
2013-04-28 14:26:00,55.3,48.2,30.30,WSW,238,1.0,3.0,77,0.00,,,0.00,VWS V14.01,2013-04-28 18:26:00,
2013-04-28 14:30:00,55.3,48.2,30.30,WSW,240,1.0,4.0,77,0.00,,,0.00,VWS V14.01,2013-04-28 18:30:00,
2013-04-28 14:31:00,55.4,48.7,30.30,WSW,240,2.0,4.0,78,0.00,,,0.00,VWS V14.01,2013-04-28 18:31:00,
2013-04-28 14:36:00,55.3,48.2,30.30,WSW,240,2.0,3.0,77,0.00,,,0.00,VWS V14.01,2013-04-28 18:36:00,
2013-04-28 14:40:00,55.3,47.9,30.29,WSW,244,2.0,4.0,76,0.00,,,0.00,VWS V14.01,2013-04-28 18:40:00,
2013-04-28 14:41:00,55.3,47.9,30.29,WSW,243,2.0,4.0,76,0.00,,,0.00,VWS V14.01,2013-04-28 18:41:00,
2013-04-28 14:46:00,56.3,48.8,30.29,WSW,244,2.0,2.0,76,0.00,,,0.00,VWS V14.01,2013-04-28 18:46:00,
2013-04-28 14:50:00,56.3,49.5,30.29,WSW,244,0.0,4.0,78,0.00,,,0.00,VWS V14.01,2013-04-28 18:50:00,
2013-04-28 14:51:00,56.0,49.2,30.29,WSW,244,0.0,4.0,78,0.00,,,0.00,VWS V14.01,2013-04-28 18:51:00,
2013-04-28 14:56:00,57.3,49.5,30.28,WSW,244,1.0,2.0,75,0.00,,,0.00,VWS V14.01,2013-04-28 18:56:00,
2013-04-28 15:00:00,56.0,48.2,30.28,WSW,244,1.0,3.0,75,0.00,,,0.00,VWS V14.01,2013-04-28 19:00:00,
2013-04-28 15:01:00,56.2,48.0,30.28,WSW,244,1.0,3.0,74,0.00,,,0.00,VWS V14.01,2013-04-28 19:01:00,
2013-04-28 15:06:00,55.7,47.9,30.28,WSW,244,2.0,3.0,75,0.00,,,0.00,VWS V14.01,2013-04-28 19:06:00,
2013-04-28 15:10:00,55.4,47.6,30.28,WSW,244,1.0,3.0,75,0.00,,,0.00,VWS V14.01,2013-04-28 19:10:00,
2013-04-28 15:12:00,55.6,47.8,30.28,WSW,244,3.0,3.0,75,0.00,,,0.00,VWS V14.01,2013-04-28 19:12:00,
2013-04-28 15:17:00,55.7,48.3,30.27,WSW,244,0.0,3.0,76,0.00,,,0.00,VWS V14.01,2013-04-28 19:17:00,
2013-04-28 15:20:00,57.5,48.9,30.27,WSW,244,1.0,3.0,73,0.00,,,0.00,VWS V14.01,2013-04-28 19:20:00,
2013-04-28 15:22:00,57.5,48.9,30.27,WSW,244,2.0,3.0,73,0.00,,,0.00,VWS V14.01,2013-04-28 19:22:00,
2013-04-28 15:27:00,56.9,48.7,30.27,WSW,244,0.0,4.0,74,0.00,,,0.00,VWS V14.01,2013-04-28 19:27:00,
2013-04-28 15:30:00,57.8,49.2,30.27,WSW,244,0.0,4.0,73,0.00,,,0.00,VWS V14.01,2013-04-28 19:30:00,
2013-04-28 15:32:00,57.8,49.2,30.27,WSW,244,0.0,4.0,73,0.00,,,0.00,VWS V14.01,2013-04-28 19:32:00,
2013-04-28 15:37:00,57.3,48.4,30.27,WSW,244,3.0,3.0,72,0.00,,,0.00,VWS V14.01,2013-04-28 19:37:00,
2013-04-28 15:40:00,56.2,47.7,30.27,WSW,244,2.0,4.0,73,0.00,,,0.00,VWS V14.01,2013-04-28 19:40:00,
2013-04-28 15:42:00,56.2,47.7,30.27,WSW,244,1.0,2.0,73,0.00,,,0.00,VWS V14.01,2013-04-28 19:42:00,
2013-04-28 15:47:00,55.4,46.9,30.27,WSW,244,1.0,4.0,73,0.00,,,0.00,VWS V14.01,2013-04-28 19:47:00,
2013-04-28 15:50:00,55.0,47.2,30.27,WSW,245,1.0,4.0,75,0.00,,,0.00,VWS V14.01,2013-04-28 19:50:00,
2013-04-28 15:52:00,55.0,47.6,30.27,WSW,245,2.0,2.0,76,0.00,,,0.00,VWS V14.01,2013-04-28 19:52:00,
2013-04-28 15:57:00,55.3,48.2,30.27,WSW,245,3.0,4.0,77,0.00,,,0.00,VWS V14.01,2013-04-28 19:57:00,
2013-04-28 16:00:00,55.6,47.5,30.27,WSW,245,0.0,4.0,74,0.00,,,0.00,VWS V14.01,2013-04-28 20:00:00,
2013-04-28 16:02:00,55.6,47.5,30.27,WSW,245,1.0,1.0,74,0.00,,,0.00,VWS V14.01,2013-04-28 20:02:00,
2013-04-28 16:07:00,56.0,47.8,30.27,WSW,245,2.0,3.0,74,0.00,,,0.00,VWS V14.01,2013-04-28 20:07:00,
2013-04-28 16:10:00,55.1,47.0,30.26,WSW,245,0.0,4.0,74,0.00,,,0.00,VWS V14.01,2013-04-28 20:10:00,
2013-04-28 16:12:00,55.1,47.0,30.26,WSW,245,0.0,0.0,74,0.00,,,0.00,VWS V14.01,2013-04-28 20:12:00,
2013-04-28 16:17:00,55.1,47.7,30.26,WSW,245,2.0,3.0,76,0.00,,,0.00,VWS V14.01,2013-04-28 20:17:00,
2013-04-28 16:20:00,54.8,47.4,30.26,WSW,245,1.0,3.0,76,0.00,,,0.00,VWS V14.01,2013-04-28 20:20:00,
2013-04-28 16:22:00,54.8,47.4,30.26,WSW,245,1.0,2.0,76,0.00,,,0.00,VWS V14.01,2013-04-28 20:22:00,
2013-04-28 16:27:00,54.8,48.1,30.26,WSW,245,2.0,3.0,78,0.00,,,0.00,VWS V14.01,2013-04-28 20:27:00,
2013-04-28 16:30:00,55.4,49.0,30.26,WSW,245,0.0,3.0,79,0.00,,,0.00,VWS V14.01,2013-04-28 20:30:00,
2013-04-28 16:32:00,55.6,49.2,30.26,WSW,245,1.0,1.0,79,0.00,,,0.00,VWS V14.01,2013-04-28 20:32:00,
2013-04-28 16:37:00,56.2,49.4,30.26,WSW,245,0.0,1.0,78,0.00,,,0.00,VWS V14.01,2013-04-28 20:37:00,
2013-04-28 16:40:00,56.3,49.5,30.26,WSW,245,0.0,1.0,78,0.00,,,0.00,VWS V14.01,2013-04-28 20:40:00,
2013-04-28 16:43:00,56.3,49.5,30.26,WSW,245,0.0,0.0,78,0.00,,,0.00,VWS V14.01,2013-04-28 20:43:00,
2013-04-28 16:48:00,56.2,49.8,30.26,WSW,245,0.0,0.0,79,0.00,,,0.00,VWS V14.01,2013-04-28 20:48:00,
2013-04-28 16:50:00,56.0,49.9,30.26,WSW,245,0.0,1.0,80,0.00,,,0.00,VWS V14.01,2013-04-28 20:50:00,
2013-04-28 16:53:00,55.9,49.5,30.26,WSW,245,0.0,1.0,79,0.00,,,0.00,VWS V14.01,2013-04-28 20:53:00,
2013-04-28 16:58:00,55.7,50.0,30.26,WSW,245,0.0,1.0,81,0.00,,,0.00,VWS V14.01,2013-04-28 20:58:00,
2013-04-28 17:00:00,55.4,49.7,30.26,WSW,245,2.0,2.0,81,0.00,,,0.00,VWS V14.01,2013-04-28 21:00:00,
2013-04-28 17:03:00,55.4,49.7,30.26,WSW,245,0.0,2.0,81,0.00,,,0.00,VWS V14.01,2013-04-28 21:03:00,
2013-04-28 17:08:00,55.4,49.7,30.26,WSW,245,0.0,2.0,81,0.00,,,0.00,VWS V14.01,2013-04-28 21:08:00,
2013-04-28 17:10:00,55.3,49.9,30.26,WSW,245,0.0,3.0,82,0.00,,,0.00,VWS V14.01,2013-04-28 21:10:00,
2013-04-28 17:13:00,55.3,49.9,30.26,WSW,245,0.0,0.0,82,0.00,,,0.00,VWS V14.01,2013-04-28 21:13:00,
2013-04-28 17:18:00,55.3,49.9,30.26,WSW,245,0.0,1.0,82,0.00,,,0.00,VWS V14.01,2013-04-28 21:18:00,
2013-04-28 17:20:00,55.3,50.2,30.26,WSW,245,0.0,2.0,83,0.00,,,0.00,VWS V14.01,2013-04-28 21:20:00,
2013-04-28 17:23:00,55.3,50.2,30.26,WSW,245,0.0,0.0,83,0.00,,,0.00,VWS V14.01,2013-04-28 21:23:00,
2013-04-28 17:28:00,54.7,49.3,30.26,WSW,245,2.0,3.0,82,0.00,,,0.00,VWS V14.01,2013-04-28 21:28:00,
2013-04-28 17:30:00,54.2,49.2,30.26,WSW,245,1.0,3.0,83,0.00,,,0.00,VWS V14.01,2013-04-28 21:30:00,
2013-04-28 17:33:00,54.1,49.1,30.26,WSW,245,0.0,2.0,83,0.00,,,0.00,VWS V14.01,2013-04-28 21:33:00,
2013-04-28 17:38:00,54.1,49.4,30.26,WSW,245,1.0,4.0,84,0.00,,,0.00,VWS V14.01,2013-04-28 21:38:00,
2013-04-28 17:40:00,53.9,49.5,30.26,WSW,245,1.0,4.0,85,0.00,,,0.00,VWS V14.01,2013-04-28 21:40:00,
2013-04-28 17:43:00,53.8,49.4,30.26,WSW,245,0.0,2.0,85,0.00,,,0.00,VWS V14.01,2013-04-28 21:43:00,
2013-04-28 17:48:00,53.5,49.4,30.26,WSW,245,0.0,3.0,86,0.00,,,0.00,VWS V14.01,2013-04-28 21:48:00,
2013-04-28 17:50:00,53.5,49.7,30.26,WSW,245,0.0,3.0,87,0.00,,,0.00,VWS V14.01,2013-04-28 21:50:00,
2013-04-28 17:54:00,53.5,49.7,30.26,WSW,245,0.0,3.0,87,0.00,,,0.00,VWS V14.01,2013-04-28 21:54:00,
2013-04-28 17:59:00,53.6,50.1,30.26,WSW,245,1.0,3.0,88,0.00,,,0.00,VWS V14.01,2013-04-28 21:59:00,
2013-04-28 18:00:00,53.6,50.1,30.26,WSW,245,0.0,3.0,88,0.00,,,0.00,VWS V14.01,2013-04-28 22:00:00,
2013-04-28 18:04:00,53.6,50.1,30.26,WSW,245,1.0,3.0,88,0.00,,,0.00,VWS V14.01,2013-04-28 22:04:00,
2013-04-28 18:09:00,53.5,50.0,30.26,WSW,245,1.0,3.0,88,0.00,,,0.00,VWS V14.01,2013-04-28 22:09:00,
2013-04-28 18:10:00,53.3,49.8,30.26,WSW,245,0.0,3.0,88,0.00,,,0.00,VWS V14.01,2013-04-28 22:10:00,
2013-04-28 18:14:00,53.3,49.8,30.26,WSW,245,0.0,0.0,88,0.00,,,0.00,VWS V14.01,2013-04-28 22:14:00,
2013-04-28 18:19:00,53.3,50.2,30.26,WSW,245,1.0,2.0,89,0.00,,,0.00,VWS V14.01,2013-04-28 22:19:00,
2013-04-28 18:20:00,53.5,50.0,30.26,WSW,245,0.0,2.0,88,0.00,,,0.00,VWS V14.01,2013-04-28 22:20:00,
2013-04-28 18:24:00,53.5,50.0,30.25,WSW,245,0.0,0.0,88,0.00,,,0.00,VWS V14.01,2013-04-28 22:24:00,
2013-04-28 18:29:00,53.3,49.8,30.25,WSW,245,0.0,2.0,88,0.00,,,0.00,VWS V14.01,2013-04-28 22:29:00,
2013-04-28 18:30:00,53.2,49.7,30.25,WSW,245,0.0,2.0,88,0.00,,,0.00,VWS V14.01,2013-04-28 22:30:00,
2013-04-28 18:34:00,53.1,49.7,30.25,WSW,245,0.0,0.0,88,0.00,,,0.00,VWS V14.01,2013-04-28 22:34:00,
2013-04-28 18:39:00,52.9,49.5,30.25,WSW,245,0.0,0.0,88,0.00,,,0.00,VWS V14.01,2013-04-28 22:39:00,
2013-04-28 18:40:00,52.9,49.5,30.25,WSW,245,0.0,0.0,88,0.00,,,0.00,VWS V14.01,2013-04-28 22:40:00,
2013-04-28 18:44:00,52.8,49.3,30.25,WSW,245,0.0,0.0,88,0.00,,,0.00,VWS V14.01,2013-04-28 22:44:00,
2013-04-28 18:49:00,52.8,49.7,30.25,WSW,245,0.0,0.0,89,0.00,,,0.00,VWS V14.01,2013-04-28 22:49:00,
2013-04-28 18:50:00,52.8,49.7,30.25,WSW,245,0.0,0.0,89,0.00,,,0.00,VWS V14.01,2013-04-28 22:50:00,
2013-04-28 18:54:00,52.8,49.7,30.25,WSW,245,0.0,0.0,89,0.00,,,0.00,VWS V14.01,2013-04-28 22:54:00,
2013-04-28 19:00:00,52.8,49.7,30.25,WSW,245,0.0,0.0,89,0.00,,,0.00,VWS V14.01,2013-04-28 23:00:00,
2013-04-28 19:05:00,52.8,49.3,30.25,WSW,245,0.0,0.0,88,0.00,,,0.00,VWS V14.01,2013-04-28 23:05:00,
2013-04-28 19:10:00,52.8,49.3,30.24,WSW,245,0.0,0.0,88,0.00,,,0.00,VWS V14.01,2013-04-28 23:10:00,
2013-04-28 19:15:00,52.6,49.5,30.24,WSW,245,0.0,0.0,89,0.00,,,0.00,VWS V14.01,2013-04-28 23:15:00,
2013-04-28 19:20:00,52.6,49.5,30.24,WSW,245,0.0,0.0,89,0.00,,,0.00,VWS V14.01,2013-04-28 23:20:00,
2013-04-28 19:25:00,52.5,49.4,30.24,WSW,245,0.0,0.0,89,0.00,,,0.00,VWS V14.01,2013-04-28 23:25:00,
2013-04-28 19:30:00,52.3,49.2,30.24,WSW,245,0.0,0.0,89,0.00,,,0.00,VWS V14.01,2013-04-28 23:30:00,
2013-04-28 19:35:00,52.2,49.1,30.24,WSW,245,0.0,0.0,89,0.00,,,0.00,VWS V14.01,2013-04-28 23:35:00,
2013-04-28 19:41:00,52.0,48.9,30.24,WSW,245,0.0,0.0,89,0.00,,,0.00,VWS V14.01,2013-04-28 23:41:00,
2013-04-28 19:46:00,51.9,48.8,30.24,WSW,245,0.0,0.0,89,0.00,,,0.00,VWS V14.01,2013-04-28 23:46:00,
2013-04-28 19:51:00,51.7,48.6,30.24,WSW,245,0.0,0.0,89,0.00,,,0.00,VWS V14.01,2013-04-28 23:51:00,
2013-04-28 19:56:00,51.6,48.5,30.24,WSW,245,0.0,0.0,89,0.00,,,0.00,VWS V14.01,2013-04-28 23:56:00,
2013-04-28 20:01:00,51.6,48.8,30.23,WSW,245,0.0,0.0,90,0.00,,,0.00,VWS V14.01,2013-04-29 00:01:00,
2013-04-28 20:06:00,51.4,48.6,30.23,WSW,245,0.0,0.0,90,0.00,,,0.00,VWS V14.01,2013-04-29 00:06:00,
2013-04-28 20:11:00,51.4,48.9,30.23,WSW,245,0.0,2.0,91,0.00,,,0.00,VWS V14.01,2013-04-29 00:11:00,
2013-04-28 20:16:00,51.4,48.9,30.23,WSW,245,0.0,0.0,91,0.00,,,0.00,VWS V14.01,2013-04-29 00:16:00,
2013-04-28 20:21:00,51.3,48.8,30.23,WSW,245,0.0,0.0,91,0.00,,,0.00,VWS V14.01,2013-04-29 00:21:00,
2013-04-28 20:26:00,51.3,49.1,30.23,WSW,245,0.0,2.0,92,0.00,,,0.00,VWS V14.01,2013-04-29 00:26:00,
2013-04-28 20:31:00,51.3,49.1,30.23,WSW,245,0.0,2.0,92,0.00,,,0.00,VWS V14.01,2013-04-29 00:31:00,
2013-04-28 20:36:00,51.1,48.9,30.23,WSW,245,0.0,0.0,92,0.00,,,0.00,VWS V14.01,2013-04-29 00:36:00,
2013-04-28 20:41:00,51.1,49.2,30.24,WSW,245,0.0,1.0,93,0.00,,,0.00,VWS V14.01,2013-04-29 00:41:00,
2013-04-28 20:46:00,51.0,49.0,30.24,WSW,245,0.0,0.0,93,0.00,,,0.00,VWS V14.01,2013-04-29 00:46:00,
2013-04-28 20:51:00,51.0,49.0,30.25,WSW,245,0.0,2.0,93,0.00,,,0.00,VWS V14.01,2013-04-29 00:51:00,
2013-04-28 20:57:00,50.8,48.8,30.25,WSW,245,0.0,1.0,93,0.00,,,0.00,VWS V14.01,2013-04-29 00:57:00,
2013-04-28 21:02:00,50.7,48.8,30.25,WSW,245,0.0,0.0,93,0.00,,,0.00,VWS V14.01,2013-04-29 01:02:00,
2013-04-28 21:07:00,50.7,48.8,30.25,WSW,245,0.0,1.0,93,0.00,,,0.00,VWS V14.01,2013-04-29 01:07:00,
2013-04-28 21:12:00,50.5,48.6,30.25,WSW,245,0.0,0.0,93,0.00,,,0.00,VWS V14.01,2013-04-29 01:12:00,
2013-04-28 21:17:00,50.5,48.8,30.25,WSW,245,0.0,0.0,94,0.00,,,0.00,VWS V14.01,2013-04-29 01:17:00,
2013-04-28 21:22:00,50.4,48.7,30.25,WSW,245,0.0,0.0,94,0.00,,,0.00,VWS V14.01,2013-04-29 01:22:00,
2013-04-28 21:27:00,50.4,48.7,30.25,WSW,245,0.0,0.0,94,0.00,,,0.00,VWS V14.01,2013-04-29 01:27:00,
2013-04-28 21:32:00,50.4,48.7,30.25,WSW,245,1.0,1.0,94,0.00,,,0.00,VWS V14.01,2013-04-29 01:32:00,
2013-04-28 21:37:00,50.2,48.5,30.25,WSW,245,0.0,1.0,94,0.00,,,0.00,VWS V14.01,2013-04-29 01:37:00,
2013-04-28 21:42:00,50.2,48.5,30.25,WSW,245,0.0,0.0,94,0.00,,,0.00,VWS V14.01,2013-04-29 01:42:00,
2013-04-28 21:47:00,50.2,48.5,30.25,WSW,245,0.0,1.0,94,0.00,,,0.00,VWS V14.01,2013-04-29 01:47:00,
2013-04-28 21:53:00,50.2,48.5,30.25,WSW,245,0.0,0.0,94,0.00,,,0.00,VWS V14.01,2013-04-29 01:53:00,
2013-04-28 21:58:00,50.1,48.4,30.25,WSW,245,0.0,0.0,94,0.00,,,0.00,VWS V14.01,2013-04-29 01:58:00,
2013-04-28 22:03:00,50.1,48.4,30.25,WSW,245,0.0,0.0,94,0.00,,,0.00,VWS V14.01,2013-04-29 02:03:00,
2013-04-28 22:08:00,50.1,48.7,30.25,WSW,245,0.0,0.0,95,0.00,,,0.00,VWS V14.01,2013-04-29 02:08:00,
2013-04-28 22:13:00,49.9,48.5,30.25,WSW,245,0.0,0.0,95,0.00,,,0.00,VWS V14.01,2013-04-29 02:13:00,
2013-04-28 22:18:00,49.9,48.5,30.25,WSW,245,0.0,0.0,95,0.00,,,0.00,VWS V14.01,2013-04-29 02:18:00,
2013-04-28 22:23:00,49.9,48.5,30.25,WSW,245,0.0,0.0,95,0.00,,,0.00,VWS V14.01,2013-04-29 02:23:00,
2013-04-28 22:28:00,49.9,48.5,30.25,WSW,245,0.0,0.0,95,0.00,,,0.00,VWS V14.01,2013-04-29 02:28:00,
2013-04-28 22:33:00,49.9,48.5,30.25,WSW,245,0.0,0.0,95,0.00,,,0.00,VWS V14.01,2013-04-29 02:33:00,
2013-04-28 22:38:00,49.9,48.5,30.25,WSW,245,0.0,4.0,95,0.00,,,0.00,VWS V14.01,2013-04-29 02:38:00,
2013-04-28 22:43:00,49.9,48.5,30.25,WSW,245,0.0,0.0,95,0.00,,,0.00,VWS V14.01,2013-04-29 02:43:00,
2013-04-28 22:48:00,49.9,48.8,30.25,WSW,245,0.0,2.0,96,0.00,,,0.00,VWS V14.01,2013-04-29 02:48:00,
2013-04-28 22:53:00,49.9,48.8,30.25,WSW,245,0.0,1.0,96,0.00,,,0.00,VWS V14.01,2013-04-29 02:53:00,
2013-04-28 22:58:00,49.9,48.8,30.25,WSW,245,0.0,2.0,96,0.00,,,0.00,VWS V14.01,2013-04-29 02:58:00,
2013-04-28 23:03:00,49.9,48.8,30.25,WSW,245,0.0,1.0,96,0.00,,,0.00,VWS V14.01,2013-04-29 03:03:00,
2013-04-28 23:08:00,49.9,48.8,30.25,WSW,245,0.0,1.0,96,0.00,,,0.00,VWS V14.01,2013-04-29 03:08:00,
2013-04-28 23:13:00,49.9,48.8,30.25,WSW,245,0.0,0.0,96,0.00,,,0.00,VWS V14.01,2013-04-29 03:13:00,
2013-04-28 23:18:00,49.9,48.8,30.25,WSW,245,0.0,0.0,96,0.00,,,0.00,VWS V14.01,2013-04-29 03:18:00,
2013-04-28 23:23:00,49.9,48.8,30.25,WSW,245,0.0,1.0,96,0.00,,,0.00,VWS V14.01,2013-04-29 03:23:00,
2013-04-28 23:28:00,49.8,48.7,30.25,WSW,245,0.0,1.0,96,0.00,,,0.00,VWS V14.01,2013-04-29 03:28:00,
2013-04-28 23:34:00,49.8,48.7,30.25,WSW,245,1.0,3.0,96,0.00,,,0.00,VWS V14.01,2013-04-29 03:34:00,
2013-04-28 23:39:00,49.8,48.7,30.25,WSW,245,0.0,3.0,96,0.00,,,0.00,VWS V14.01,2013-04-29 03:39:00,
2013-04-28 23:44:00,49.8,48.7,30.25,WSW,245,0.0,1.0,96,0.00,,,0.00,VWS V14.01,2013-04-29 03:44:00,
2013-04-28 23:49:00,49.9,48.8,30.25,WSW,245,0.0,2.0,96,0.00,,,0.00,VWS V14.01,2013-04-29 03:49:00,
2013-04-28 23:54:00,49.9,48.8,30.25,WSW,245,0.0,0.0,96,0.00,,,0.00,VWS V14.01,2013-04-29 03:54:00,
2013-04-28 23:59:00,49.8,48.7,30.25,WSW,245,0.0,1.0,96,0.00,,,0.00,VWS V14.01,2013-04-29 03:59:00,